• Join FlightAware (Why Join?)
  • Login
  • US Flag 
02:47AM EDT


 

Airport Tracker/Info


-or-


 

Live Flight TrackerFlight Track Log ✈ GJS3707 ✈ 16-May-2013 ✈ KORD - KBOI

Flight Track Log - Related Links

Times and Time Zones

All times are in EDT time to prevent confusion due to time zone crossing. See the GJS3707 flight status page for this flight to view local times or setup timezone preferences in your user account.

Time Position Orientation Groundspeed Altitude Reporting Facility
EDT Latitude Longitude Course Direction KTS MPH feet Rate Location/Type
11:08AM 42.0167 -87.9667 261° West 179 206 2,000  Level Chicago TRACON
11:10AM 41.9333 -88.3321 270° West  Level FlightAware Approximate
11:10AM 42.1089 -88.0764 319° Northwest 248 285 5,900  Level Chicago Center
11:11AM 41.9156 -88.4761 261° West  Level FlightAware Approximate
11:11AM 42.1756 -88.1239 332° Northwest 270 311 8,500  Level Chicago Center
11:12AM 41.8986 -88.6213 261° West  Level FlightAware Approximate
11:12AM 42.1469 -88.2378 251° West 283 326 11,600  Level Chicago Center
11:13AM 41.8811 -88.7696 261° West  Level FlightAware Approximate
11:13AM 42.0958 -88.3292 233° Southwest 307 353 12,800  Level Chicago Center
11:14AM 42.0694 -88.4450 253° West 324 373 14,900 1,680 Climbing Chicago Center
11:15AM 42.0581 -88.5650 263° West 331 381 16,300 1,560 Climbing Chicago Center
11:16AM 42.0528 -88.6942 267° West 344 396 18,100 1,620 Climbing Chicago Center
11:17AM 42.0489 -88.8264 268° West 353 406 19,700 1,680 Climbing Chicago Center
11:18AM 42.0469 -88.9850 269° West 357 411 21,600 1,560 Climbing Chicago Center
11:19AM 42.0486 -89.1211 271° West 365 420 23,000 1,080 Climbing Chicago Center
11:20AM 42.0550 -89.2611 274° West 377 434 23,900 900 Climbing Chicago Center
11:21AM 42.0600 -89.4039 273° West 385 443 24,900 1,020 Climbing Chicago Center
11:22AM 42.0661 -89.5683 273° West 391 450 26,100 1,020 Climbing Chicago Center
11:23AM 42.0708 -89.7256 272° West 398 458 27,100 960 Climbing Chicago Center
11:24AM 42.0786 -89.8744 274° West 399 459 28,100 900 Climbing Chicago Center
11:25AM 42.0861 -90.0114 274° West 399 459 29,000 720 Climbing Chicago Center
11:26AM 42.0931 -90.1603 274° West 403 464 29,700 720 Climbing Chicago Center
11:27AM 42.1000 -90.3461 273° West 413 475 30,500 720 Climbing Chicago Center
11:28AM 42.1081 -90.4986 274° West 414 476 31,200 660 Climbing Chicago Center
11:29AM 42.1172 -90.6539 275° West 418 481 31,900 660 Climbing Chicago Center
11:30AM 42.1247 -90.8081 274° West 416 479 32,600 660 Climbing Chicago Center
11:31AM 42.1292 -90.9636 272° West 418 481 33,300 660 Climbing Chicago Center
11:32AM 42.1361 -91.1522 273° West 422 486 34,000 300 Climbing Chicago Center
11:33AM 42.1417 -91.3089 273° West 422 486 34,000  Level Chicago Center
11:34AM 42.1467 -91.4686 272° West 428 493 34,000  Level Chicago Center
11:35AM 42.1514 -91.6231 272° West 417 480 34,000  Level Chicago Center
11:36AM 42.1558 -91.7764 272° West 413 475 34,000  Level Chicago Center
11:37AM 42.1594 -91.9283 272° West 409 471 34,000  Level Chicago Center
11:39AM 42.1642 -92.1119 272° West 411 473 34,000 240 Level Chicago Center
11:39AM 42.1825 -92.2314 282° West 412 474 34,500 480 Climbing Minneapolis Center
11:40AM 42.2172 -92.3731 288° West 406 467 35,000 300 Climbing Minneapolis Center
11:41AM 42.2519 -92.5194 288° West 407 468 35,200 420 Climbing Minneapolis Center
11:42AM 42.2583 -92.7050 273° West 413 475 35,900 360 Climbing Minneapolis Center
11:44AM 42.2639 -92.8611 273° West 416 479 36,000  Climbing Minneapolis Center
11:45AM 42.2689 -93.0147 273° West 415 478 36,000  Level Minneapolis Center
11:46AM 42.2731 -93.1667 272° West 411 473 36,000  Level Minneapolis Center
11:47AM 42.2769 -93.3186 272° West 410 472 36,000  Level Minneapolis Center
11:48AM 42.2806 -93.4978 272° West 402 463 36,000  Level Minneapolis Center
11:49AM 42.2853 -93.6783 272° West 405 466 36,000  Level Minneapolis Center
11:50AM 42.2886 -93.8275 272° West 402 463 36,000  Level Minneapolis Center
11:51AM 42.2903 -93.9778 271° West 406 467 36,000  Level Minneapolis Center
11:52AM 42.2939 -94.0961 272° West 400 460 36,000  Level Minneapolis Center
11:53AM 42.2981 -94.2872 272° West 400 460 36,000  Level Minneapolis Center
11:54AM 42.2997 -94.4353 271° West 396 456 36,000  Level Minneapolis Center
11:55AM 42.3022 -94.6117 271° West 393 452 36,000  Level Minneapolis Center
11:56AM 42.3033 -94.7564 271° West 387 445 36,000  Level Minneapolis Center
11:57AM 42.3058 -94.9028 271° West 390 449 36,000  Level Minneapolis Center
11:58AM 42.3067 -95.0497 270° West 391 450 36,000  Level Minneapolis Center
11:59AM 42.3081 -95.1978 271° West 394 453 36,000  Level Minneapolis Center
12:00PM 42.3097 -95.3506 271° West 404 465 36,000  Level Minneapolis Center
12:01PM 42.3106 -95.5306 270° West 402 463 36,000  Level Minneapolis Center
12:03PM 42.2867 -95.7084 260° West  Level FlightAware Approximate
12:03PM 42.3119 -95.8303 260° West 400 460 36,000  Level Minneapolis Center
12:04PM 42.3119 -95.9797 270° West 400 460 36,000  Level Minneapolis Center
12:05PM 42.3125 -96.1272 270° West 397 457 36,000  Level Minneapolis Center
12:06PM 42.3119 -96.2753 270° West 396 456 36,000  Level Minneapolis Center
12:07PM 42.3125 -96.4517 270° West 394 453 36,000  Level Minneapolis Center
12:09PM 42.3128 -96.5989 270° West 394 453 36,000  Level Minneapolis Center
12:10PM 42.3117 -96.7500 269° West 401 461 36,000  Level Minneapolis Center
12:11PM 42.3106 -96.9039 269° West 406 467 36,000  Level Minneapolis Center
12:12PM 42.3089 -97.0558 269° West 408 470 36,000  Level Minneapolis Center
12:13PM 42.3078 -97.2094 269° West 409 471 36,000  Level Minneapolis Center
12:14PM 42.3061 -97.3611 269° West 408 470 36,000  Level Minneapolis Center
12:15PM 42.3047 -97.5425 269° West 404 465 36,000  Level Minneapolis Center
12:16PM 42.3031 -97.6922 269° West 403 464 36,000  Level Minneapolis Center
12:17PM 42.3014 -97.8553 269° West 401 461 36,000  Level Minneapolis Center
12:18PM 42.3000 -97.9756 269° West 401 461 36,000  Level Minneapolis Center
12:19PM 42.2967 -98.1544 269° West 398 458 36,000  Level Minneapolis Center
12:20PM 42.2939 -98.3031 269° West 398 458 36,000  Level Minneapolis Center
12:21PM 42.2906 -98.4517 268° West 396 456 36,000  Level Minneapolis Center
12:22PM 42.2872 -98.6286 269° West 395 455 36,000  Level Minneapolis Center
12:23PM 42.2839 -98.7764 268° West 395 455 36,000  Level Minneapolis Center
12:24PM 42.2811 -98.8956 268° West 397 457 36,000  Level Minneapolis Center
12:25PM 42.2767 -99.0767 268° West 402 463 36,000  Level Minneapolis Center
12:26PM 42.2728 -99.2292 268° West 406 467 36,000 -60 Level Minneapolis Center
12:27PM 42.2692 -99.3825 268° West 409 471 35,900  Descending Minneapolis Center
12:28PM 42.2819 -99.5067 278° West 419 482 36,000  Climbing Denver Center
12:29PM 42.3108 -99.6892 282° West 434 499 36,000  Level Denver Center
12:30PM 42.3344 -99.8408 282° West 434 499 36,000  Level Denver Center
12:31PM 42.3614 -100.0203 282° West 438 504 36,000  Level Denver Center
12:32PM 42.3842 -100.1778 281° West 445 512 36,000  Level Denver Center
12:33PM 42.4106 -100.3581 281° West 442 509 36,000  Level Denver Center
12:34PM 42.4339 -100.5167 281° West 447 514 36,000  Level Denver Center
12:35PM 42.4606 -100.7025 281° West 451 519 36,000  Level Denver Center
12:36PM 42.4811 -100.8589 280° West 445 512 36,000  Level Denver Center
12:37PM 42.5064 -101.0394 281° West 439 505 36,000  Level Denver Center
12:38PM 42.5278 -101.1942 281° West 438 504 36,000  Level Denver Center
12:39PM 42.5494 -101.3525 281° West 447 514 36,000  Level Denver Center
12:41PM 42.5950 -101.6994 280° West 451 519 36,000  Level Denver Center
12:42PM 42.6211 -101.8981 280° West 459 528 36,000  Level Denver Center
12:43PM 42.6417 -102.0617 280° West 460 529 36,000  Level Denver Center
12:44PM 42.6672 -102.2547 280° West 464 534 36,000  Level Denver Center
12:45PM 42.6889 -102.4206 280° West 466 536 36,000  Level Denver Center
12:46PM 42.7092 -102.5864 280° West 466 536 36,000  Level Denver Center
12:48PM 42.7325 -102.7783 279° West 460 529 36,000  Level Denver Center
12:49PM 42.7531 -102.9397 280° West 455 524 36,000  Level Denver Center
12:50PM 42.7733 -103.1244 279° West 443 510 36,000  Level Denver Center
12:51PM 42.7928 -103.2800 280° West 439 505 36,000  Level Denver Center
12:52PM 42.8142 -103.4633 279° West 440 506 36,000  Level Denver Center
12:53PM 42.8311 -103.6208 278° West 440 506 36,000  Level Denver Center
12:54PM 42.8514 -103.8031 279° West 438 504 36,000  Level Denver Center
12:55PM 42.8697 -103.9553 279° West 429 494 36,000  Level Denver Center
12:56PM 42.8889 -104.1322 278° West 426 490 36,000  Level Denver Center
12:57PM 42.9058 -104.2819 279° West 423 487 36,000  Level Denver Center
12:58PM 42.9244 -104.4561 278° West 421 484 36,000  Level Denver Center
12:59PM 42.9403 -104.6044 278° West 419 482 36,000  Level Denver Center
01:00PM 42.9583 -104.7764 278° West 415 478 36,000  Level Denver Center
01:01PM 42.9733 -104.9247 278° West 414 476 36,000  Level Denver Center
01:02PM 42.9900 -105.0989 278° West 416 479 36,000  Level Denver Center
01:03PM 43.0053 -105.2506 278° West 421 484 36,000  Level Denver Center
01:04PM 43.0228 -105.4253 278° West 416 479 36,000  Level Denver Center
01:05PM 43.0372 -105.5764 278° West 418 481 36,000  Level Denver Center
01:06PM 43.0533 -105.7511 277° West 417 480 36,000  Level Denver Center
01:07PM 43.0675 -105.9011 277° West 417 480 36,000  Level Denver Center
01:08PM 43.0842 -106.0756 278° West 417 480 36,000  Level Denver Center
01:09PM 43.0972 -106.2253 277° West 415 478 36,000  Level Denver Center
01:10PM 43.1136 -106.3967 278° West 407 468 36,000  Level Denver Center
01:11PM 43.1258 -106.5411 277° West 399 459 36,000  Level Denver Center
01:12PM 43.1406 -106.7089 277° West 397 457 36,000  Level Denver Center
01:13PM 43.1533 -106.8533 277° West 399 459 36,000  Level Denver Center
01:14PM 43.1669 -107.0206 276° West 403 464 36,000  Level Denver Center
01:15PM 43.1783 -107.1672 276° West 404 465 36,000  Level Denver Center
01:16PM 43.1922 -107.3392 276° West 405 466 36,000  Level Denver Center
01:18PM 43.2047 -107.4872 277° West 406 467 36,000  Level Denver Center
01:19PM 43.2186 -107.6583 276° West 404 465 36,000  Level Denver Center
01:20PM 43.2294 -107.8014 276° West 396 456 36,000  Level Denver Center
01:21PM 43.2422 -107.9717 276° West 399 459 36,000  Level Salt Lake Center
01:22PM 43.2550 -108.1439 276° West 404 465 36,000  Level Salt Lake Center
01:23PM 43.2653 -108.2900 276° West 404 465 36,000  Level Salt Lake Center
01:24PM 43.2764 -108.4375 276° West 405 466 36,000  Level Salt Lake Center
01:25PM 43.2892 -108.6083 276° West 403 464 36,000  Level Salt Lake Center
01:26PM 43.2981 -108.7503 275° West 396 456 36,000  Level Salt Lake Center
01:27PM 43.3100 -108.9175 276° West 393 452 36,000  Level Salt Lake Center
01:28PM 43.3189 -109.0617 275° West 394 453 36,000  Level Salt Lake Center
01:29PM 43.3286 -109.2042 275° West 394 453 36,000  Level Salt Lake Center
01:30PM 43.3392 -109.3711 275° West 394 453 36,000  Level Salt Lake Center
01:31PM 43.3478 -109.5158 275° West 396 456 36,000  Level Salt Lake Center
01:32PM 43.3589 -109.6839 275° West 397 457 36,000  Level Salt Lake Center
01:33PM 43.3675 -109.8297 275° West 399 459 36,000  Level Salt Lake Center
01:34PM 43.3761 -109.9761 275° West 393 452 36,000  Level Salt Lake Center
01:35PM 43.3861 -110.1436 275° West 394 453 36,000  Level Salt Lake Center
01:36PM 43.3939 -110.2864 274° West 393 452 36,000  Level Salt Lake Center
01:37PM 43.4028 -110.4553 274° West 397 457 36,000  Level Salt Lake Center
01:38PM 43.4100 -110.6064 274° West 397 457 36,000  Level Salt Lake Center
01:39PM 43.4178 -110.7497 274° West 394 453 36,000  Level Salt Lake Center
01:40PM 43.4261 -110.9175 274° West 394 453 36,000  Level Salt Lake Center
01:41PM 43.4333 -111.0633 274° West 397 457 36,000  Level Salt Lake Center
01:42PM 43.4408 -111.2069 274° West 392 451 36,000  Level Salt Lake Center
01:43PM 43.4472 -111.3764 273° West 396 456 36,000  Level Salt Lake Center
01:44PM 43.4539 -111.5222 274° West 398 458 36,000  Level Salt Lake Center
01:45PM 43.4606 -111.6911 273° West 396 456 36,000  Level Salt Lake Center
01:46PM 43.4678 -111.8350 274° West 395 455 36,000  Level Salt Lake Center
01:47PM 43.4742 -112.0044 273° West 396 456 36,000  Level Salt Lake Center
01:48PM 43.4806 -112.1500 274° West 396 456 36,000  Level Salt Lake Center
01:50PM 43.4867 -112.3183 273° West 394 453 36,000  Level Salt Lake Center
01:51PM 43.4919 -112.4611 273° West 391 450 36,000  Level Salt Lake Center
01:52PM 43.4969 -112.6019 273° West 385 443 36,000  Level Salt Lake Center
01:53PM 43.5003 -112.7647 272° West 383 441 36,000  Level Salt Lake Center
01:54PM 43.5064 -112.9064 273° West 384 442 36,000  Level Salt Lake Center
01:55PM 43.5111 -113.0686 272° West 381 438 36,000  Level Salt Lake Center
01:56PM 43.5144 -113.2064 272° West 379 436 36,000  Level Salt Lake Center
01:57PM 43.5192 -113.3664 272° West 374 430 36,000  Level Salt Lake Center
01:58PM 43.5236 -113.5031 273° West 372 428 36,000  Level Salt Lake Center
01:59PM 43.5297 -113.6667 273° West 374 430 36,000  Level Salt Lake Center
02:00PM 43.5322 -113.8014 272° West 369 425 36,000  Level Salt Lake Center
02:01PM 43.5364 -113.9406 272° West 374 430 36,000 -60 Level Salt Lake Center
02:02PM 43.5386 -114.0978 271° West 369 425 35,900 -660 Descending Salt Lake Center
02:03PM 43.5567 -114.2350 280° West 381 438 34,700 -1,620 Descending Salt Lake Center
02:04PM 43.5925 -114.3911 288° West 382 440 32,600 -1,320 Descending Salt Lake Center
02:05PM 43.6250 -114.5161 290° West 370 426 32,000 -780 Descending Salt Lake Center
02:06PM 43.6211 -114.6700 268° West 357 411 31,000 -1,620 Descending Salt Lake Center
02:07PM 43.6181 -114.7950 268° West 337 388 28,700 -2,520 Descending Salt Lake Center
02:08PM 43.6139 -114.9356 268° West 323 372 25,900 -2,580 Descending Salt Lake Center
02:09PM 43.6100 -115.0561 267° West 325 374 23,500 -2,340 Descending Salt Lake Center
02:10PM 43.6050 -115.1769 267° West 329 379 21,100 -2,640 Descending Salt Lake Center
02:11PM 43.6000 -115.3206 267° West 326 375 18,100 -2,700 Descending Salt Lake Center
02:12PM 43.5961 -115.4489 268° West 323 372 15,600 -2,160 Descending Salt Lake Center
02:13PM 43.5908 -115.5675 267° West 322 371 13,700 -1,740 Descending Salt Lake Center
02:14PM 43.5858 -115.6872 267° West 302 348 12,100 -1,620 Descending Salt Lake Center
02:15PM 43.5817 -115.8014 267° West 286 329 10,400 -1,800 Descending Salt Lake Center
02:16PM 43.5269 -115.8586 217° Southwest 266 306 8,500 -1,440 Descending Salt Lake Center
02:17PM 43.4592 -115.8733 189° South 235 270 7,500 -960 Descending Salt Lake Center
02:18PM 43.4386 -115.9247 241° Southwest 198 228 6,600 -660 Descending Salt Lake Center
02:19PM 43.4722 -115.9778 311° West 193 222 6,200 -480 Descending Salt Lake Center
02:20PM 43.5031 -116.0428 303° West 194 223 5,700 -780 Descending Salt Lake Center
02:22PM 43.5258 -116.1106 295° West 190 219 4,600 -1,020 Descending Salt Lake Center
02:23PM 43.5422 -116.1561 296° West 156 180 3,700 -900 Descending Salt Lake Center
02:25PM 43.5500 -116.2167 251° West  Level FlightAware Approximate
02:32PM 43.5644 -116.2229 251° West  Level Estimated
02:33PM 43.5644 -116.2229 251° West  Level Estimated